Time;durP1;ratioP1;P1;durP2;ratioP2;P2;SDS_P1;SDS_P2;PMS_P1;PMS_P2;Temp;Humidity;BMP_temperature;BMP_pressure;BME280_temperature;BME280_humidity;BME280_pressure;Samples;Min_cycle;Max_cycle;Signal;HPM_P1;HPM_P2
2021/09/24 00:01:50;;;;;;;5.85;2.53;;;;;;;23.85;42.13;101518.84;5072323;28;20078;-77
2021/09/24 00:04:16;;;;;;;6.15;2.53;;;;;;;24.03;42.17;101517.00;5073715;28;20475;-77
2021/09/24 00:06:43;;;;;;;9.32;2.33;;;;;;;24.21;42.05;101508.78;5073639;28;20032;-77
2021/09/24 00:09:09;;;;;;;8.55;2.85;;;;;;;24.31;41.75;101506.06;5073580;28;20028;-77
2021/09/24 00:11:36;;;;;;;8.60;3.08;;;;;;;24.37;41.60;101508.53;5073559;28;20059;-77
2021/09/24 00:14:02;;;;;;;7.57;2.60;;;;;;;24.40;41.54;101494.56;5073469;28;20086;-77
2021/09/24 00:16:28;;;;;;;9.98;2.63;;;;;;;24.35;42.05;101487.38;5073409;28;20032;-77
2021/09/24 00:18:53;;;;;;;7.38;2.70;;;;;;;24.42;41.61;101481.03;5073377;28;20029;-77
2021/09/24 00:21:19;;;;;;;10.35;2.72;;;;;;;24.45;41.84;101471.84;5073374;28;20078;-77
2021/09/24 00:23:45;;;;;;;6.03;2.20;;;;;;;24.33;42.08;101467.41;5073304;28;20394;-77
2021/09/24 00:26:10;;;;;;;8.82;2.53;;;;;;;24.40;41.75;101460.25;5073300;28;20012;-77
2021/09/24 00:28:36;;;;;;;10.73;2.35;;;;;;;24.41;41.77;101451.50;5073226;28;20035;-76
2021/09/24 00:31:02;;;;;;;8.45;2.22;;;;;;;24.13;42.68;101449.28;5073097;28;20035;-78
2021/09/24 00:33:28;;;;;;;7.72;2.05;;;;;;;24.23;42.61;101445.75;5073128;28;20021;-77
2021/09/24 00:35:55;;;;;;;8.27;2.15;;;;;;;24.28;42.40;101447.41;5073094;28;20443;-77
2021/09/24 00:38:22;;;;;;;8.52;2.53;;;;;;;24.18;42.63;101454.53;5072969;28;20066;-77
2021/09/24 00:40:48;;;;;;;8.57;2.35;;;;;;;24.09;43.04;101445.66;5072559;28;20095;-77
2021/09/24 00:43:14;;;;;;;11.52;2.88;;;;;;;24.16;42.71;101444.91;5072960;28;20047;-77
2021/09/24 00:45:39;;;;;;;7.20;2.50;;;;;;;24.05;43.16;101442.06;5072894;28;20021;-77
2021/09/24 00:48:05;;;;;;;7.97;2.78;;;;;;;24.07;43.16;101437.69;5072304;28;20113;-77
2021/09/24 00:50:31;;;;;;;10.85;2.92;;;;;;;24.06;43.05;101435.28;5072808;28;20123;-77
2021/09/24 00:52:57;;;;;;;8.32;2.45;;;;;;;24.14;43.23;101433.34;5072764;28;20107;-77
2021/09/24 00:55:23;;;;;;;13.27;3.13;;;;;;;24.23;43.08;101439.38;5072771;28;20103;-77
2021/09/24 00:57:49;;;;;;;8.85;3.40;;;;;;;24.15;43.04;101435.75;5071530;28;20032;-77
2021/09/24 01:00:15;;;;;;;9.35;3.85;;;;;;;24.34;42.59;101435.50;5072686;28;20398;-77
2021/09/24 01:02:41;;;;;;;6.97;3.17;;;;;;;24.21;43.41;101430.59;5072705;28;20039;-77
2021/09/24 01:05:09;;;;;;;5.28;2.38;;;;;;;24.40;42.80;101432.31;5072657;28;20032;-77
2021/09/24 01:07:40;;;;;;;7.45;3.10;;;;;;;24.43;43.08;101425.97;5072613;28;20028;-77
2021/09/24 01:10:08;;;;;;;7.80;3.55;;;;;;;24.51;42.53;101422.00;5072595;28;20029;-77
2021/09/24 01:12:34;;;;;;;8.70;4.15;;;;;;;24.44;43.29;101413.59;5072612;28;20067;-77
2021/09/24 01:15:07;;;;;;;7.28;3.85;;;;;;;24.54;43.24;101426.81;5072578;28;20053;-77
2021/09/24 01:17:33;;;;;;;8.13;4.38;;;;;;;24.68;42.78;101424.06;5072771;28;20024;-77
2021/09/24 01:19:59;;;;;;;8.77;4.53;;;;;;;24.55;43.01;101414.44;5072480;28;20031;-77
2021/09/24 01:22:25;;;;;;;15.65;6.00;;;;;;;24.61;43.15;101413.66;5072480;28;20067;-77
2021/09/24 01:24:50;;;;;;;12.10;5.53;;;;;;;24.60;42.95;101405.69;5072501;28;20399;-77
2021/09/24 01:27:16;;;;;;;9.50;4.47;;;;;;;24.62;43.14;101411.69;5072388;28;20070;-77
2021/09/24 01:29:42;;;;;;;11.77;5.28;;;;;;;24.52;43.31;101398.47;5072409;28;20486;-77
2021/09/24 01:32:08;;;;;;;12.32;5.47;;;;;;;24.62;43.16;101398.50;5072506;28;20036;-77
2021/09/24 01:34:33;;;;;;;11.45;5.55;;;;;;;24.64;43.29;101400.94;5072361;28;20055;-77
2021/09/24 01:36:59;;;;;;;11.10;5.03;;;;;;;24.44;43.42;101389.25;5072339;28;20032;-76
2021/09/24 01:39:25;;;;;;;13.05;5.05;;;;;;;24.16;44.49;101401.03;5072253;28;20047;-77
2021/09/24 01:41:51;;;;;;;15.32;5.32;;;;;;;24.33;44.17;101392.00;5072026;28;20103;-77
2021/09/24 01:44:16;;;;;;;7.55;4.72;;;;;;;24.29;44.37;101381.97;5072234;28;20032;-77
2021/09/24 01:46:45;;;;;;;11.13;4.80;;;;;;;24.42;44.21;101374.91;5072282;28;20115;-77
2021/09/24 01:49:12;;;;;;;9.65;5.20;;;;;;;24.55;43.72;101361.34;5072167;28;20024;-77
2021/09/24 01:51:42;;;;;;;9.60;5.30;;;;;;;24.67;43.67;101360.22;5072219;28;20530;-77
2021/09/24 01:54:07;;;;;;;;;;;;;;;24.24;44.90;101362.78;5366313;22;20512;-77
2021/09/24 01:56:33;;;;;;;12.75;4.88;;;;;;;24.24;45.35;101358.00;5072252;28;19912;-78
2021/09/24 01:58:59;;;;;;;10.80;4.82;;;;;;;24.44;44.40;101358.53;5073506;28;20052;-77
2021/09/24 02:01:24;;;;;;;14.57;6.70;;;;;;;24.75;43.56;101357.03;5076257;28;20429;-80
2021/09/24 02:03:50;;;;;;;11.05;4.90;;;;;;;24.50;44.38;101347.78;5076177;28;20446;-77
2021/09/24 02:06:16;;;;;;;8.18;4.70;;;;;;;24.40;45.12;101346.53;5076044;28;20032;-77
2021/09/24 02:08:42;;;;;;;10.43;5.57;;;;;;;24.23;45.66;101348.03;5058039;28;20044;-77
2021/09/24 02:11:11;;;;;;;10.27;5.00;;;;;;;24.51;44.82;101344.59;5075929;28;20028;-77
2021/09/24 02:13:40;;;;;;;11.00;5.47;;;;;;;24.59;44.86;101342.63;5075916;28;20033;-77
2021/09/24 02:16:07;;;;;;;10.02;5.70;;;;;;;24.69;44.87;101355.03;5057869;28;20111;-77
2021/09/24 02:18:33;;;;;;;10.43;5.18;;;;;;;24.83;44.26;101344.69;5075215;28;20029;-80
2021/09/24 02:20:59;;;;;;;13.13;5.65;;;;;;;24.85;44.26;101333.09;5057953;28;20025;-81
2021/09/24 02:23:25;;;;;;;10.80;5.47;;;;;;;24.87;44.64;101334.31;5075640;28;20104;-77
2021/09/24 02:25:50;;;;;;;11.20;5.25;;;;;;;24.92;44.33;101327.53;5075646;28;20394;-78
2021/09/24 02:28:16;;;;;;;9.77;5.72;;;;;;;25.00;44.18;101320.75;5075610;28;20032;-78
2021/09/24 02:30:41;;;;;;;10.30;5.75;;;;;;;25.12;44.31;101311.22;5075496;28;20025;-78
2021/09/24 02:33:07;;;;;;;9.30;5.30;;;;;;;25.21;44.04;101314.41;5075514;28;20154;-77
2021/09/24 02:35:32;;;;;;;10.45;6.18;;;;;;;25.16;43.85;101318.41;5075761;28;20032;-77
2021/09/24 02:37:58;;;;;;;9.57;6.03;;;;;;;25.04;44.42;101324.38;5075373;28;20021;-78
2021/09/24 02:40:24;;;;;;;11.93;5.90;;;;;;;25.03;44.75;101316.38;5075305;28;20024;-77
2021/09/24 02:42:50;;;;;;;13.60;6.55;;;;;;;25.12;44.40;101308.41;5075304;28;20096;-77
2021/09/24 02:45:15;;;;;;;12.40;7.00;;;;;;;25.04;44.86;101310.41;5075237;28;20031;-80
2021/09/24 02:47:41;;;;;;;13.00;7.20;;;;;;;25.04;44.63;101301.22;5075267;28;20055;-79
2021/09/24 02:50:09;;;;;;;8.77;7.25;;;;;;;25.28;44.44;101296.81;5075083;28;20446;-77
2021/09/24 02:52:35;;;;;;;11.68;6.68;;;;;;;25.34;44.25;101296.03;5075189;28;20087;-77
2021/09/24 02:55:01;;;;;;;13.93;8.32;;;;;;;25.12;44.87;101298.03;5074938;28;20045;-77
2021/09/24 02:57:26;;;;;;;12.50;7.32;;;;;;;25.17;44.61;101291.25;5075175;28;20035;-80
2021/09/24 02:59:52;;;;;;;12.90;7.60;;;;;;;25.08;44.98;101283.22;5075030;28;20055;-77
2021/09/24 03:02:18;;;;;;;9.38;7.57;;;;;;;25.26;44.72;101288.03;5075384;28;20052;-78
2021/09/24 03:04:44;;;;;;;12.70;8.55;;;;;;;25.30;44.82;101281.22;5074997;28;20511;-77
2021/09/24 03:07:10;;;;;;;12.85;7.97;;;;;;;25.28;44.72;101280.84;5074930;28;20028;-77
2021/09/24 03:09:36;;;;;;;15.95;8.93;;;;;;;25.14;45.03;101280.84;5074784;28;20028;-78
2021/09/24 03:12:03;;;;;;;11.18;8.60;;;;;;;25.22;45.35;101276.03;5074255;28;20024;-80
2021/09/24 03:14:28;;;;;;;11.80;8.68;;;;;;;25.03;46.13;101274.44;5074762;28;20025;-77
2021/09/24 03:16:54;;;;;;;11.38;8.57;;;;;;;24.92;46.06;101272.41;5074802;28;20382;-77
2021/09/24 03:19:20;;;;;;;13.57;8.63;;;;;;;25.20;45.72;101273.66;5074703;28;20085;-80
2021/09/24 03:21:47;;;;;;;11.52;8.82;;;;;;;24.76;47.17;101272.00;5074647;28;20127;-77
2021/09/24 03:24:13;;;;;;;10.85;8.57;;;;;;;24.78;47.44;101274.41;5056567;28;20027;-80
2021/09/24 03:26:39;;;;;;;11.93;8.85;;;;;;;24.91;47.00;101275.63;5074495;28;20426;-77
2021/09/24 03:29:04;;;;;;;17.15;9.48;;;;;;;24.87;47.35;101266.44;5074519;28;20485;-77
2021/09/24 03:31:30;;;;;;;15.55;9.35;;;;;;;24.99;46.75;101262.44;5074327;28;20029;-77
2021/09/24 03:33:55;;;;;;;14.90;10.05;;;;;;;24.97;47.00;101267.63;5074459;28;20474;-77
2021/09/24 03:36:21;;;;;;;16.15;9.77;;;;;;;24.83;47.86;101274.81;5074377;28;20043;-80
2021/09/24 03:38:47;;;;;;;15.05;9.65;;;;;;;25.03;47.11;101269.69;5074393;28;20048;-78
2021/09/24 03:41:12;;;;;;;16.65;11.07;;;;;;;25.13;46.82;101263.28;5074269;28;20073;-78
2021/09/24 03:43:38;;;;;;;15.95;9.63;;;;;;;25.12;47.07;101266.47;5074250;28;20017;-77
2021/09/24 03:46:04;;;;;;;18.20;11.50;;;;;;;25.20;46.60;101259.69;5074145;28;20428;-78
2021/09/24 03:48:30;;;;;;;19.02;11.68;;;;;;;25.18;46.48;101254.50;5074086;28;20034;-78
2021/09/24 03:50:55;;;;;;;18.00;10.35;;;;;;;25.27;46.49;101254.06;5073976;28;20033;-77
2021/09/24 03:53:21;;;;;;;14.10;8.25;;;;;;;25.28;46.35;101249.28;5073803;28;20056;-78
2021/09/24 03:55:48;;;;;;;14.48;9.32;;;;;;;25.10;47.16;101263.28;5074018;28;20033;-77
2021/09/24 03:58:14;;;;;;;16.50;9.23;;;;;;;25.29;46.72;101262.06;5073921;28;20025;-78
2021/09/24 04:00:39;;;;;;;14.07;8.95;;;;;;;25.37;46.48;101249.66;5070570;28;20033;-77
2021/09/24 04:03:05;;;;;;;18.38;9.57;;;;;;;25.38;46.36;101259.66;5073836;28;20033;-82
2021/09/24 04:05:31;;;;;;;16.33;10.10;;;;;;;25.33;46.83;101257.28;5073858;28;20056;-78
2021/09/24 04:07:56;;;;;;;17.30;9.63;;;;;;;25.39;46.37;101255.66;5073691;28;20044;-77
2021/09/24 04:10:22;;;;;;;13.00;8.98;;;;;;;25.44;46.15;101244.84;5073572;28;20035;-78
2021/09/24 04:12:47;;;;;;;15.45;9.70;;;;;;;25.25;47.07;101241.72;5073510;28;20390;-78
2021/09/24 04:15:13;;;;;;;12.95;8.18;;;;;;;25.12;47.63;101247.69;5073525;28;20101;-80
2021/09/24 04:17:39;;;;;;;14.23;9.07;;;;;;;25.10;47.60;101240.91;5073519;28;20032;-77
2021/09/24 04:20:05;;;;;;;15.05;10.27;;;;;;;25.24;47.36;101246.50;5073473;28;20088;-77
2021/09/24 04:22:30;;;;;;;18.48;9.77;;;;;;;25.28;47.13;101244.47;5072541;28;20111;-78
2021/09/24 04:24:56;;;;;;;13.65;8.77;;;;;;;25.22;47.37;101243.28;5073401;28;20056;-78
2021/09/24 04:27:22;;;;;;;18.27;9.48;;;;;;;25.31;47.53;101231.69;5073281;28;20028;-77
2021/09/24 04:29:48;;;;;;;14.27;9.50;;;;;;;25.34;47.46;101228.91;5073197;28;20083;-77
2021/09/24 04:32:13;;;;;;;10.63;7.95;;;;;;;25.12;48.21;101225.34;5073246;28;20498;-78
2021/09/24 04:34:39;;;;;;;13.30;8.85;;;;;;;25.52;47.09;101225.25;5073157;28;20063;-79
2021/09/24 04:37:05;;;;;;;14.25;8.55;;;;;;;25.46;47.16;101222.06;5073134;28;20033;-78
2021/09/24 04:39:30;;;;;;;13.27;8.85;;;;;;;25.38;47.39;101229.66;5073042;28;20032;-79
2021/09/24 04:41:56;;;;;;;14.43;8.45;;;;;;;25.55;47.22;101216.06;5072921;28;20036;-79
2021/09/24 04:44:21;;;;;;;11.07;8.07;;;;;;;25.43;47.42;101226.47;5072963;28;20029;-78
2021/09/24 04:46:48;;;;;;;11.63;8.00;;;;;;;25.35;47.76;101230.50;5072994;28;20021;-78
2021/09/24 04:49:14;;;;;;;11.48;7.20;;;;;;;25.52;47.55;101222.47;5073021;28;20420;-77
2021/09/24 04:51:40;;;;;;;11.55;7.43;;;;;;;25.56;47.50;101212.88;5055008;28;20398;-76
2021/09/24 04:54:06;;;;;;;10.98;7.22;;;;;;;25.42;48.29;101213.69;5043330;28;20053;-77
2021/09/24 04:56:32;;;;;;;10.80;6.28;;;;;;;25.45;48.33;101218.47;5032030;28;20036;-76
2021/09/24 04:58:57;;;;;;;11.35;6.80;;;;;;;25.54;48.42;101220.03;5033073;28;20047;-76
2021/09/24 05:01:23;;;;;;;9.23;6.72;;;;;;;25.92;47.27;101226.75;5033077;28;20498;-76
2021/09/24 05:03:48;;;;;;;11.55;7.07;;;;;;;26.04;46.94;101225.50;5032853;28;20037;-76
2021/09/24 05:06:14;;;;;;;10.93;5.95;;;;;;;25.94;47.43;101227.16;5064723;28;20034;-76
2021/09/24 05:08:40;;;;;;;8.57;5.15;;;;;;;25.98;47.46;101225.91;5032808;28;20456;-77
2021/09/24 05:11:05;;;;;;;10.18;5.22;;;;;;;25.97;47.65;101229.13;5032712;28;20134;-80
2021/09/24 05:13:32;;;;;;;10.48;4.45;;;;;;;25.92;47.81;101216.38;5031451;28;20099;-81
2021/09/24 05:15:57;;;;;;;11.10;4.97;;;;;;;25.91;48.20;101225.94;5032626;28;20060;-78
2021/09/24 05:18:23;;;;;;;12.93;5.00;;;;;;;26.23;47.27;101222.22;5032931;28;20057;-77
2021/09/24 05:20:49;;;;;;;8.90;5.05;;;;;;;26.08;47.80;101215.09;5032463;28;20619;-76
2021/09/24 05:23:15;;;;;;;10.70;5.63;;;;;;;26.14;47.55;101217.03;5031366;28;20034;-77
2021/09/24 05:25:40;;;;;;;7.68;4.88;;;;;;;25.98;48.15;101211.91;5032593;28;20120;-80
2021/09/24 05:28:06;;;;;;;9.32;4.32;;;;;;;25.87;48.84;101213.19;5032608;28;20075;-76
2021/09/24 05:30:31;;;;;;;8.70;3.72;;;;;;;26.11;48.16;101219.88;5032440;28;20068;-76
2021/09/24 05:32:58;;;;;;;9.50;4.88;;;;;;;26.17;48.08;101216.22;5032615;28;20039;-76
2021/09/24 05:35:24;;;;;;;8.45;4.65;;;;;;;26.14;48.28;101214.22;5038938;28;20029;-76
2021/09/24 05:37:49;;;;;;;9.07;4.82;;;;;;;26.38;47.46;101209.72;5039089;28;20128;-77
2021/09/24 05:40:15;;;;;;;9.20;4.60;;;;;;;26.49;47.24;101207.66;5039076;28;20063;-76
2021/09/24 05:42:41;;;;;;;7.45;4.63;;;;;;;26.50;47.24;101214.84;5039057;28;20071;-81
2021/09/24 05:45:11;;;;;;;9.05;4.55;;;;;;;26.31;47.97;101212.56;5070854;28;20037;-82
2021/09/24 05:47:37;;;;;;;;;;;;;;;26.56;46.96;101206.81;5071588;28;20430;-79
2021/09/24 05:50:10;;;;;;;9.82;4.35;;;;;;;26.23;47.98;101211.00;5038925;28;19917;-76
2021/09/24 05:52:36;;;;;;;8.02;4.05;;;;;;;26.26;48.12;101210.19;5038921;28;20037;-76
2021/09/24 05:55:02;;;;;;;8.38;4.32;;;;;;;26.41;47.65;101211.72;5070146;28;20402;-76
2021/09/24 05:57:28;;;;;;;7.78;4.60;;;;;;;26.62;46.95;101207.19;5078946;28;20024;-76
2021/09/24 05:59:53;;;;;;;8.75;4.93;;;;;;;26.42;47.42;101210.50;5078866;28;20025;-76
2021/09/24 06:02:19;;;;;;;8.25;4.40;;;;;;;26.26;48.43;101210.19;5094533;28;20024;-76
2021/09/24 06:04:45;;;;;;;5.32;3.55;;;;;;;26.21;48.36;101197.38;5078859;28;20063;-76
2021/09/24 06:07:10;;;;;;;6.15;4.05;;;;;;;26.05;49.10;101208.28;5078832;28;20024;-80
2021/09/24 06:09:36;;;;;;;6.78;3.90;;;;;;;26.39;48.29;101205.72;5078724;28;20035;-76
2021/09/24 06:12:01;;;;;;;11.20;5.53;;;;;;;26.51;47.55;101208.03;5078768;28;20413;-76
2021/09/24 06:14:27;;;;;;;6.70;4.47;;;;;;;26.40;48.29;101212.13;5078815;28;20035;-77
2021/09/24 06:16:52;;;;;;;7.50;4.60;;;;;;;26.44;48.09;101208.06;5078715;28;20612;-77
2021/09/24 06:19:18;;;;;;;13.35;4.63;;;;;;;26.52;48.06;101209.63;5078612;28;20028;-76
2021/09/24 06:21:45;;;;;;;7.80;4.45;;;;;;;26.21;48.86;101210.59;5078665;28;20028;-76
2021/09/24 06:24:12;;;;;;;9.27;4.63;;;;;;;26.52;47.99;101208.81;5078722;28;20466;-78
2021/09/24 06:26:38;;;;;;;8.48;4.40;;;;;;;26.28;48.95;101190.94;5078726;28;20024;-82
2021/09/24 06:29:03;;;;;;;14.60;5.25;;;;;;;26.36;49.00;101194.50;5078649;28;20497;-82
2021/09/24 06:31:29;;;;;;;8.73;5.10;;;;;;;26.33;48.93;101181.31;5078518;28;20056;-77
2021/09/24 06:33:54;;;;;;;9.73;4.85;;;;;;;26.34;49.17;101189.31;5078581;28;20445;-80
2021/09/24 06:36:21;;;;;;;8.52;4.35;;;;;;;26.27;49.61;101187.34;5078627;28;20440;-76
2021/09/24 06:38:47;;;;;;;15.85;6.55;;;;;;;26.65;48.41;101187.50;5078503;28;20470;-76
2021/09/24 06:41:14;;;;;;;13.15;5.80;;;;;;;26.21;49.92;101185.38;5078732;28;20082;-87
2021/09/24 06:43:39;;;;;;;9.82;5.30;;;;;;;26.43;49.13;101195.28;5078646;28;20031;-77
2021/09/24 06:46:05;;;;;;;10.75;4.85;;;;;;;26.16;50.02;101199.84;5075520;28;20432;-78
2021/09/24 06:48:31;;;;;;;12.50;4.18;;;;;;;26.70;48.84;101197.50;5075868;28;20031;-87
2021/09/24 06:50:56;;;;;;;16.25;5.05;;;;;;;26.68;48.64;101202.72;5075429;28;20039;-77
2021/09/24 06:53:22;;;;;;;8.95;3.85;;;;;;;26.49;49.36;101185.25;5091064;28;20029;-84
2021/09/24 06:55:48;;;;;;;14.18;5.78;;;;;;;26.12;50.39;101180.25;5055419;28;20045;-83
2021/09/24 06:58:13;;;;;;;12.77;5.30;;;;;;;26.35;49.94;101185.31;5053547;28;20032;-77
2021/09/24 07:00:39;;;;;;;11.48;4.38;;;;;;;26.34;49.91;101189.31;5053825;28;20029;-85
2021/09/24 07:03:04;;;;;;;9.55;4.40;;;;;;;26.64;49.02;101188.72;5055210;28;20124;-85
2021/09/24 07:05:30;;;;;;;8.77;3.88;;;;;;;26.65;49.11;101187.50;5055845;28;20383;-86
2021/09/24 07:07:55;;;;;;;9.50;4.75;;;;;;;26.40;49.73;101192.53;5055991;28;20518;-85
2021/09/24 07:10:21;;;;;;;8.57;3.88;;;;;;;26.46;49.67;101191.69;5055409;28;20033;-83
2021/09/24 07:12:48;;;;;;;7.05;3.47;;;;;;;26.76;48.78;101199.44;5053252;28;20052;-80
2021/09/24 07:15:16;;;;;;;11.90;4.35;;;;;;;26.80;48.95;101199.41;5038915;28;20075;-84
2021/09/24 07:17:41;;;;;;;7.03;3.17;;;;;;;26.99;48.00;101196.03;5037742;28;20028;-79
2021/09/24 07:20:08;;;;;;;7.55;2.72;;;;;;;26.93;48.34;101202.50;5036458;28;20029;-78
2021/09/24 07:22:34;;;;;;;6.78;2.55;;;;;;;26.93;48.48;101206.13;5044165;28;20394;-90
2021/09/24 07:24:59;;;;;;;5.22;2.13;;;;;;;26.78;48.75;101213.06;5039735;28;20499;-79
2021/09/24 07:27:25;;;;;;;7.47;2.30;;;;;;;27.00;48.46;101213.66;5038168;28;20029;-83
2021/09/24 07:29:51;;;;;;;9.60;2.38;;;;;;;27.23;47.50;101216.69;5048380;28;20604;-78
2021/09/24 07:32:17;;;;;;;3.67;1.98;;;;;;;27.26;47.56;101220.66;5050406;28;20086;-87
2021/09/24 07:34:43;;;;;;;5.32;1.92;;;;;;;27.06;47.79;101212.03;5051767;28;20029;-87
2021/09/24 07:37:13;;;;;;;3.55;2.00;;;;;;;27.15;47.79;101219.97;5052972;28;20033;-80
2021/09/24 07:39:39;;;;;;;7.00;2.38;;;;;;;27.10;47.96;101221.22;5053608;28;20506;-78
2021/09/24 07:42:05;;;;;;;4.53;1.85;;;;;;;27.22;47.68;101220.69;5055864;28;20067;-89
2021/09/24 07:44:30;;;;;;;23.60;3.88;;;;;;;27.32;47.23;101224.59;5056710;28;20029;-80
2021/09/24 07:46:56;;;;;;;5.47;1.73;;;;;;;27.35;47.52;101223.75;5046571;28;20025;-78
2021/09/24 07:49:22;;;;;;;3.58;1.60;;;;;;;27.43;47.04;101224.47;5039285;28;20548;-78
2021/09/24 07:51:47;;;;;;;4.97;1.50;;;;;;;27.28;47.38;101224.66;5038523;28;20028;-81
2021/09/24 07:54:13;;;;;;;5.40;1.83;;;;;;;27.40;47.03;101231.72;5046314;28;20044;-87
2021/09/24 07:56:38;;;;;;;5.13;2.00;;;;;;;27.07;48.06;101233.25;5059690;28;20478;-78
2021/09/24 07:59:04;;;;;;;3.25;1.38;;;;;;;26.97;47.97;101220.88;5057260;28;20027;-87
2021/09/24 08:01:30;;;;;;;3.33;1.17;;;;;;;27.24;47.46;101223.09;5058062;28;20554;-78
2021/09/24 08:03:55;;;;;;;2.35;1.35;;;;;;;27.53;46.90;101213.16;5058156;28;20029;-80
2021/09/24 08:06:22;;;;;;;2.30;0.90;;;;;;;27.30;47.22;101204.59;5057754;28;20028;-87
2021/09/24 08:08:48;;;;;;;4.32;1.42;;;;;;;27.23;47.55;101213.88;5084904;28;20074;-79
2021/09/24 08:11:14;;;;;;;2.22;1.20;;;;;;;27.61;46.19;101209.06;5074602;28;20036;-78
2021/09/24 08:13:41;;;;;;;1.65;1.13;;;;;;;27.47;47.03;101208.41;5074131;28;20025;-78
2021/09/24 08:16:07;;;;;;;13.88;2.35;;;;;;;27.77;46.15;101221.72;5072903;28;20402;-79
2021/09/24 08:18:32;;;;;;;7.80;1.40;;;;;;;27.78;46.04;101215.69;5072666;28;20032;-79
2021/09/24 08:20:59;;;;;;;3.03;1.27;;;;;;;27.70;46.29;101204.97;5061800;28;20032;-79
2021/09/24 08:23:25;;;;;;;7.95;1.70;;;;;;;27.74;46.22;101212.16;5074410;28;20032;-86
2021/09/24 08:25:51;;;;;;;3.78;1.33;;;;;;;28.14;45.52;101212.44;5072334;28;20085;-77
2021/09/24 08:28:16;;;;;;;2.13;1.45;;;;;;;28.08;45.27;101220.53;5074172;28;20107;-78
2021/09/24 08:30:42;;;;;;;7.25;2.13;;;;;;;28.01;45.24;101209.38;5089772;28;20162;-78
2021/09/24 08:33:08;;;;;;;7.90;2.28;;;;;;;27.68;46.22;101218.63;5065319;28;20032;-78
2021/09/24 08:35:34;;;;;;;3.20;2.15;;;;;;;27.70;46.14;101216.19;5057172;28;21187;-80
2021/09/24 08:38:00;;;;;;;4.35;2.72;;;;;;;27.67;46.14;101214.22;5049076;28;20391;-90
2021/09/24 08:40:28;;;;;;;4.97;2.38;;;;;;;27.98;45.43;101215.84;5074239;28;20039;-82
2021/09/24 08:42:54;;;;;;;7.70;3.55;;;;;;;28.08;45.24;101203.66;5074014;28;20480;-88
2021/09/24 08:45:29;;;;;;;9.80;3.65;;;;;;;28.07;45.22;101212.53;5073867;28;20047;-89
2021/09/24 08:47:57;;;;;;;4.47;2.65;;;;;;;27.87;45.63;101217.97;5074110;28;20236;-80
2021/09/24 08:50:24;;;;;;;4.15;2.38;;;;;;;28.05;45.05;101221.38;5073892;28;20039;-78
2021/09/24 08:52:51;;;;;;;5.78;2.80;;;;;;;27.73;45.99;101221.75;5073637;28;20111;-78
2021/09/24 08:55:17;;;;;;;4.25;2.63;;;;;;;27.72;46.03;101225.78;5073584;28;20041;-79
2021/09/24 08:57:43;;;;;;;7.13;3.20;;;;;;;27.65;46.14;101226.63;5074637;28;20032;-90
2021/09/24 09:00:10;;;;;;;4.68;3.00;;;;;;;27.32;47.07;101219.00;5063703;28;20039;-86
2021/09/24 09:03:13;;;;;;;12.15;5.22;;;;;;;27.65;46.44;101226.63;5052796;28;20123;-83
2021/09/24 09:05:40;;;;;;;6.03;3.15;;;;;;;28.09;45.20;101222.09;5058123;28;20016;-80
2021/09/24 09:08:07;;;;;;;4.65;2.88;;;;;;;28.32;44.67;101215.00;5057490;28;20212;-84
2021/09/24 09:10:49;;;;;;;7.22;3.35;;;;;;;27.71;46.12;101224.19;5063374;28;20039;-88
2021/09/24 09:13:16;;;;;;;5.38;3.08;;;;;;;28.04;45.08;101219.00;5073428;28;20032;-79
2021/09/24 09:15:53;;;;;;;4.43;3.00;;;;;;;27.92;45.42;101209.91;5073432;28;20078;-90
2021/09/24 09:18:19;;;;;;;7.55;3.38;;;;;;;28.24;44.99;101208.66;5074223;28;20032;-90
2021/09/24 09:20:47;;;;;;;5.40;2.70;;;;;;;28.12;45.19;101210.03;5074017;28;20099;-89
2021/09/24 09:23:13;;;;;;;5.05;3.17;;;;;;;28.53;44.51;101200.63;5074680;28;20284;-82
2021/09/24 09:25:49;;;;;;;4.78;2.90;;;;;;;28.42;44.56;101205.63;5056646;28;20401;-91
2021/09/24 09:28:25;;;;;;;5.80;2.45;;;;;;;28.69;43.93;101199.97;5074492;28;20035;-90
2021/09/24 09:30:54;;;;;;;7.20;2.83;;;;;;;28.54;44.39;101198.63;5073834;28;20029;-87
2021/09/24 09:33:21;;;;;;;7.32;2.25;;;;;;;28.47;44.65;101205.13;5055632;28;20032;-90
2021/09/24 09:35:53;;;;;;;4.18;1.95;;;;;;;28.45;44.57;101194.31;5073053;28;20032;-79
2021/09/24 09:38:31;;;;;;;4.32;2.45;;;;;;;27.72;45.87;101191.31;5073688;28;20118;-91
2021/09/24 09:41:16;;;;;;;3.90;2.42;;;;;;;28.25;44.29;101195.41;5073398;28;20032;-87
2021/09/24 09:43:48;;;;;;;5.13;1.90;;;;;;;27.84;45.08;101196.38;5073140;28;20025;-87
2021/09/24 09:46:17;;;;;;;3.55;1.77;;;;;;;27.91;44.90;101193.47;5073278;28;20027;-79
2021/09/24 09:48:45;;;;;;;2.65;1.73;;;;;;;28.10;44.78;101192.78;5073243;28;20028;-89
2021/09/24 09:51:20;;;;;;;4.40;1.70;;;;;;;27.98;45.14;101186.97;5073211;28;20111;-82
2021/09/24 09:53:49;;;;;;;4.30;1.40;;;;;;;28.20;44.52;101191.06;5073294;28;20048;-80
2021/09/24 09:56:15;;;;;;;5.20;1.35;;;;;;;28.44;44.12;101201.16;5067287;28;20048;-79
2021/09/24 09:58:40;;;;;;;3.00;1.20;;;;;;;28.30;44.67;101186.53;5056650;28;20055;-83
2021/09/24 10:01:17;;;;;;;3.78;1.70;;;;;;;28.70;43.81;101191.09;5056977;28;20048;-82
2021/09/24 10:03:53;;;;;;;4.45;2.22;;;;;;;28.70;43.70;101198.75;5061080;28;20025;-79
2021/09/24 10:06:20;;;;;;;4.63;2.15;;;;;;;28.70;43.44;101188.28;5060204;28;20086;-81
2021/09/24 10:08:49;;;;;;;3.50;1.67;;;;;;;28.61;43.90;101190.88;5059655;28;20032;-81
2021/09/24 10:11:14;;;;;;;3.08;1.40;;;;;;;28.65;43.59;101196.44;5058977;28;20035;-79
2021/09/24 10:13:53;;;;;;;2.50;1.70;;;;;;;28.46;43.44;101200.75;5062455;28;20020;-88
2021/09/24 10:16:24;;;;;;;2.03;1.58;;;;;;;28.18;44.11;101197.09;5062915;28;20024;-91
2021/09/24 10:18:50;;;;;;;2.13;1.40;;;;;;;28.72;43.00;101194.31;5068363;28;20377;-80
2021/09/24 10:21:15;;;;;;;4.50;1.73;;;;;;;28.61;43.69;101206.94;5059235;28;20024;-80
2021/09/24 10:23:43;;;;;;;2.45;1.15;;;;;;;28.69;43.15;101197.97;5075816;28;20033;-78
2021/09/24 10:26:16;;;;;;;2.10;0.90;;;;;;;28.06;44.52;101206.09;5076584;28;20021;-82
2021/09/24 10:28:43;;;;;;;2.33;0.93;;;;;;;28.74;42.81;101189.03;5059303;28;20027;-89
2021/09/24 10:31:14;;;;;;;1.30;0.80;;;;;;;28.66;43.42;101193.19;5076010;28;20029;-88
2021/09/24 10:33:46;;;;;;;2.05;1.00;;;;;;;28.78;43.42;101182.56;5075627;28;20024;-90
2021/09/24 10:36:36;;;;;;;3.03;1.05;;;;;;;29.00;42.38;101176.16;5077191;28;20036;-89
2021/09/24 10:39:03;;;;;;;1.23;0.80;;;;;;;28.91;42.63;101178.75;5059264;28;20433;-78
2021/09/24 10:41:28;;;;;;;2.92;0.88;;;;;;;28.66;43.36;101173.53;5076932;28;20028;-89
2021/09/24 10:43:56;;;;;;;3.80;0.85;;;;;;;28.63;43.31;101171.53;5077298;28;20098;-86
2021/09/24 10:46:25;;;;;;;2.10;1.48;;;;;;;28.04;44.55;101169.22;5076628;28;20029;-89
2021/09/24 10:49:16;;;;;;;2.25;0.70;;;;;;;28.13;44.13;101144.22;5058947;28;20116;-87
2021/09/24 10:52:08;;;;;;;1.65;0.90;;;;;;;28.34;44.15;101164.78;5058528;28;20025;-90
2021/09/24 10:54:52;;;;;;;1.40;0.80;;;;;;;28.93;43.16;101169.88;5076380;28;20044;-88
2021/09/24 10:57:18;;;;;;;6.82;2.10;;;;;;;29.13;42.82;101181.16;5075447;28;20036;-91
2021/09/24 10:59:43;;;;;;;1.75;1.00;;;;;;;29.30;42.63;101183.63;5076596;28;20099;-89
2021/09/24 11:02:36;;;;;;;1.55;0.70;;;;;;;29.16;42.70;101186.72;5059398;28;20046;-78
2021/09/24 11:05:03;;;;;;;1.58;0.90;;;;;;;29.18;42.34;101191.94;5076302;28;20470;-89
2021/09/24 11:07:30;;;;;;;1.50;1.00;;;;;;;30.13;40.28;101173.53;5075991;28;20020;-80
2021/09/24 11:09:56;;;;;;;9.05;2.15;;;;;;;30.31;41.00;101169.06;5058537;28;20032;-90
2021/09/24 11:12:22;;;;;;;3.00;0.80;;;;;;;30.11;40.97;101171.94;5058933;28;20028;-81
2021/09/24 11:15:06;;;;;;;5.00;1.10;;;;;;;29.80;41.38;101171.41;5075950;28;20013;-90
2021/09/24 11:17:46;;;;;;;5.40;1.17;;;;;;;29.91;40.87;101170.38;5076031;28;20498;-88
2021/09/24 11:20:34;;;;;;;5.72;1.38;;;;;;;30.21;40.68;101187.00;5057165;28;20474;-85
2021/09/24 11:23:37;;;;;;;2.85;0.90;;;;;;;30.08;40.30;101186.91;5075620;28;20052;-88